sensor_id;sensor_type;location;lat;lon;timestamp;temperature;humidity
71128;SHT30;59249;59.736;30.568;2022-09-03T00:00:01;6.31;87.01
71128;SHT30;59249;59.736;30.568;2022-09-03T00:02:40;6.32;86.91
71128;SHT30;59249;59.736;30.568;2022-09-03T00:05:20;6.30;87.01
71128;SHT30;59249;59.736;30.568;2022-09-03T00:08:01;6.30;87.18
71128;SHT30;59249;59.736;30.568;2022-09-03T00:10:41;6.19;87.07
71128;SHT30;59249;59.736;30.568;2022-09-03T00:13:21;6.21;87.26
71128;SHT30;59249;59.736;30.568;2022-09-03T00:15:52;6.24;87.31
71128;SHT30;59249;59.736;30.568;2022-09-03T00:18:30;6.15;87.26
71128;SHT30;59249;59.736;30.568;2022-09-03T00:21:05;6.12;87.23
71128;SHT30;59249;59.736;30.568;2022-09-03T00:23:40;6.08;87.20
71128;SHT30;59249;59.736;30.568;2022-09-03T00:26:22;6.15;87.57
71128;SHT30;59249;59.736;30.568;2022-09-03T00:28:59;6.10;87.26
71128;SHT30;59249;59.736;30.568;2022-09-03T00:31:34;6.06;87.22
71128;SHT30;59249;59.736;30.568;2022-09-03T00:34:14;6.17;87.12
71128;SHT30;59249;59.736;30.568;2022-09-03T00:36:44;6.07;87.24
71128;SHT30;59249;59.736;30.568;2022-09-03T00:39:16;5.99;87.19
71128;SHT30;59249;59.736;30.568;2022-09-03T00:42:00;5.98;87.08
71128;SHT30;59249;59.736;30.568;2022-09-03T00:45:02;6.05;87.08
71128;SHT30;59249;59.736;30.568;2022-09-03T00:47:53;5.95;87.24
71128;SHT30;59249;59.736;30.568;2022-09-03T00:50:40;5.91;87.35
71128;SHT30;59249;59.736;30.568;2022-09-03T00:53:24;5.86;87.30
71128;SHT30;59249;59.736;30.568;2022-09-03T00:56:04;5.89;87.24
71128;SHT30;59249;59.736;30.568;2022-09-03T00:58:54;5.86;87.42
71128;SHT30;59249;59.736;30.568;2022-09-03T01:01:33;5.80;87.25
71128;SHT30;59249;59.736;30.568;2022-09-03T01:04:24;5.91;87.31
71128;SHT30;59249;59.736;30.568;2022-09-03T01:07:07;5.81;87.26
71128;SHT30;59249;59.736;30.568;2022-09-03T01:09:49;5.86;87.30
71128;SHT30;59249;59.736;30.568;2022-09-03T01:12:36;5.70;87.51
71128;SHT30;59249;59.736;30.568;2022-09-03T01:15:15;5.75;87.72
71128;SHT30;59249;59.736;30.568;2022-09-03T01:18:04;5.76;87.90
71128;SHT30;59249;59.736;30.568;2022-09-03T01:20:53;5.79;87.94
71128;SHT30;59249;59.736;30.568;2022-09-03T01:23:59;5.86;87.71
71128;SHT30;59249;59.736;30.568;2022-09-03T01:26:54;5.85;87.76
71128;SHT30;59249;59.736;30.568;2022-09-03T01:29:38;5.83;87.71
71128;SHT30;59249;59.736;30.568;2022-09-03T01:32:20;5.83;87.65
71128;SHT30;59249;59.736;30.568;2022-09-03T01:34:59;5.71;87.60
71128;SHT30;59249;59.736;30.568;2022-09-03T01:37:43;5.77;87.35
71128;SHT30;59249;59.736;30.568;2022-09-03T01:40:23;5.64;87.29
71128;SHT30;59249;59.736;30.568;2022-09-03T01:43:13;5.68;87.41
71128;SHT30;59249;59.736;30.568;2022-09-03T01:45:53;5.65;87.46
71128;SHT30;59249;59.736;30.568;2022-09-03T01:48:43;5.63;87.25
71128;SHT30;59249;59.736;30.568;2022-09-03T01:51:22;5.57;87.29
71128;SHT30;59249;59.736;30.568;2022-09-03T01:54:12;5.65;87.46
71128;SHT30;59249;59.736;30.568;2022-09-03T01:57:22;5.58;87.45
71128;SHT30;59249;59.736;30.568;2022-09-03T02:00:08;5.56;87.67
71128;SHT30;59249;59.736;30.568;2022-09-03T02:02:44;5.60;87.66
71128;SHT30;59249;59.736;30.568;2022-09-03T02:05:17;5.50;87.71
71128;SHT30;59249;59.736;30.568;2022-09-03T02:07:50;5.65;87.85
71128;SHT30;59249;59.736;30.568;2022-09-03T02:10:24;5.67;87.95
71128;SHT30;59249;59.736;30.568;2022-09-03T02:13:02;5.74;87.98
71128;SHT30;59249;59.736;30.568;2022-09-03T02:15:35;5.77;87.93
71128;SHT30;59249;59.736;30.568;2022-09-03T02:18:12;5.81;87.86
71128;SHT30;59249;59.736;30.568;2022-09-03T02:20:43;5.84;87.70
71128;SHT30;59249;59.736;30.568;2022-09-03T02:23:14;5.77;87.50
71128;SHT30;59249;59.736;30.568;2022-09-03T02:25:55;5.84;87.44
71128;SHT30;59249;59.736;30.568;2022-09-03T02:28:26;5.80;87.59
71128;SHT30;59249;59.736;30.568;2022-09-03T02:30:55;5.82;87.48
71128;SHT30;59249;59.736;30.568;2022-09-03T02:33:26;5.83;87.39
71128;SHT30;59249;59.736;30.568;2022-09-03T02:35:55;5.85;87.37
71128;SHT30;59249;59.736;30.568;2022-09-03T02:38:25;5.92;87.51
71128;SHT30;59249;59.736;30.568;2022-09-03T02:40:54;5.92;87.57
71128;SHT30;59249;59.736;30.568;2022-09-03T02:43:31;5.96;87.37
71128;SHT30;59249;59.736;30.568;2022-09-03T02:46:07;5.92;87.42
71128;SHT30;59249;59.736;30.568;2022-09-03T02:48:37;5.93;87.27
71128;SHT30;59249;59.736;30.568;2022-09-03T02:51:06;5.90;87.19
71128;SHT30;59249;59.736;30.568;2022-09-03T02:53:41;5.83;87.17
71128;SHT30;59249;59.736;30.568;2022-09-03T02:56:11;5.88;87.37
71128;SHT30;59249;59.736;30.568;2022-09-03T02:58:40;5.82;87.45
71128;SHT30;59249;59.736;30.568;2022-09-03T03:01:08;5.82;87.54
71128;SHT30;59249;59.736;30.568;2022-09-03T03:03:49;5.92;87.29
71128;SHT30;59249;59.736;30.568;2022-09-03T03:06:19;5.81;87.25
71128;SHT30;59249;59.736;30.568;2022-09-03T03:08:48;5.91;87.08
71128;SHT30;59249;59.736;30.568;2022-09-03T03:11:18;5.87;86.90
71128;SHT30;59249;59.736;30.568;2022-09-03T03:13:48;5.92;87.14
71128;SHT30;59249;59.736;30.568;2022-09-03T03:16:17;5.90;87.24
71128;SHT30;59249;59.736;30.568;2022-09-03T03:18:46;5.93;87.23
71128;SHT30;59249;59.736;30.568;2022-09-03T03:21:17;5.98;87.11
71128;SHT30;59249;59.736;30.568;2022-09-03T03:23:46;6.01;87.05
71128;SHT30;59249;59.736;30.568;2022-09-03T03:26:18;5.93;87.05
71128;SHT30;59249;59.736;30.568;2022-09-03T03:28:49;5.97;86.90
71128;SHT30;59249;59.736;30.568;2022-09-03T03:31:24;5.95;86.87
71128;SHT30;59249;59.736;30.568;2022-09-03T03:33:55;5.99;86.96
71128;SHT30;59249;59.736;30.568;2022-09-03T03:36:29;6.12;86.94
71128;SHT30;59249;59.736;30.568;2022-09-03T03:39:01;6.11;86.91
71128;SHT30;59249;59.736;30.568;2022-09-03T03:41:32;6.14;86.82
71128;SHT30;59249;59.736;30.568;2022-09-03T03:44:04;6.22;86.76
71128;SHT30;59249;59.736;30.568;2022-09-03T03:46:35;6.28;86.69
71128;SHT30;59249;59.736;30.568;2022-09-03T03:49:04;6.28;86.67
71128;SHT30;59249;59.736;30.568;2022-09-03T03:51:36;6.41;86.71
71128;SHT30;59249;59.736;30.568;2022-09-03T03:54:05;6.42;86.71
71128;SHT30;59249;59.736;30.568;2022-09-03T03:56:34;6.45;86.58
71128;SHT30;59249;59.736;30.568;2022-09-03T03:59:04;6.37;86.45
71128;SHT30;59249;59.736;30.568;2022-09-03T04:01:32;6.47;86.54
71128;SHT30;59249;59.736;30.568;2022-09-03T04:04:02;6.47;86.50
71128;SHT30;59249;59.736;30.568;2022-09-03T04:06:31;6.56;86.47
71128;SHT30;59249;59.736;30.568;2022-09-03T04:09:02;6.68;86.27
71128;SHT30;59249;59.736;30.568;2022-09-03T04:11:31;6.69;86.19
71128;SHT30;59249;59.736;30.568;2022-09-03T04:14:02;6.76;86.25
71128;SHT30;59249;59.736;30.568;2022-09-03T04:16:31;6.81;86.20
71128;SHT30;59249;59.736;30.568;2022-09-03T04:19:00;6.88;85.76
71128;SHT30;59249;59.736;30.568;2022-09-03T04:21:30;7.00;85.58
71128;SHT30;59249;59.736;30.568;2022-09-03T04:23:58;7.01;85.51
71128;SHT30;59249;59.736;30.568;2022-09-03T04:26:31;7.07;85.49
71128;SHT30;59249;59.736;30.568;2022-09-03T04:29:04;7.19;85.31
71128;SHT30;59249;59.736;30.568;2022-09-03T04:31:34;7.16;85.03
71128;SHT30;59249;59.736;30.568;2022-09-03T04:34:04;7.26;84.96
71128;SHT30;59249;59.736;30.568;2022-09-03T04:36:33;7.33;84.89
71128;SHT30;59249;59.736;30.568;2022-09-03T04:39:03;7.36;84.91
71128;SHT30;59249;59.736;30.568;2022-09-03T04:41:34;7.43;84.89
71128;SHT30;59249;59.736;30.568;2022-09-03T04:44:03;7.49;84.74
71128;SHT30;59249;59.736;30.568;2022-09-03T04:46:31;7.39;84.92
71128;SHT30;59249;59.736;30.568;2022-09-03T04:49:01;7.31;84.98
71128;SHT30;59249;59.736;30.568;2022-09-03T04:51:30;7.42;85.04
71128;SHT30;59249;59.736;30.568;2022-09-03T04:54:01;7.55;85.20
71128;SHT30;59249;59.736;30.568;2022-09-03T04:56:34;7.64;85.21
71128;SHT30;59249;59.736;30.568;2022-09-03T04:59:05;7.75;85.10
71128;SHT30;59249;59.736;30.568;2022-09-03T05:01:37;7.82;85.08
71128;SHT30;59249;59.736;30.568;2022-09-03T05:04:07;7.89;85.01
71128;SHT30;59249;59.736;30.568;2022-09-03T05:06:36;8.03;85.00
71128;SHT30;59249;59.736;30.568;2022-09-03T05:09:05;8.21;84.95
71128;SHT30;59249;59.736;30.568;2022-09-03T05:11:36;8.33;84.56
71128;SHT30;59249;59.736;30.568;2022-09-03T05:14:05;8.43;84.58
71128;SHT30;59249;59.736;30.568;2022-09-03T05:16:38;8.48;84.52
71128;SHT30;59249;59.736;30.568;2022-09-03T05:19:07;8.63;84.51
71128;SHT30;59249;59.736;30.568;2022-09-03T05:21:37;8.67;84.46
71128;SHT30;59249;59.736;30.568;2022-09-03T05:24:06;8.80;84.50
71128;SHT30;59249;59.736;30.568;2022-09-03T05:26:38;8.98;84.36
71128;SHT30;59249;59.736;30.568;2022-09-03T05:29:07;9.02;84.24
71128;SHT30;59249;59.736;30.568;2022-09-03T05:31:38;9.05;84.19
71128;SHT30;59249;59.736;30.568;2022-09-03T05:34:08;9.19;84.30
71128;SHT30;59249;59.736;30.568;2022-09-03T05:36:44;9.26;84.54
71128;SHT30;59249;59.736;30.568;2022-09-03T05:39:16;9.35;84.54
71128;SHT30;59249;59.736;30.568;2022-09-03T05:41:46;9.46;84.33
71128;SHT30;59249;59.736;30.568;2022-09-03T05:44:18;9.50;84.40
71128;SHT30;59249;59.736;30.568;2022-09-03T05:46:48;9.50;84.40
71128;SHT30;59249;59.736;30.568;2022-09-03T05:49:18;9.60;83.82
71128;SHT30;59249;59.736;30.568;2022-09-03T05:51:46;9.65;83.80
71128;SHT30;59249;59.736;30.568;2022-09-03T05:54:17;9.64;83.81
71128;SHT30;59249;59.736;30.568;2022-09-03T05:56:48;9.66;83.69
71128;SHT30;59249;59.736;30.568;2022-09-03T05:59:17;9.65;83.83
71128;SHT30;59249;59.736;30.568;2022-09-03T06:01:46;9.79;83.81
71128;SHT30;59249;59.736;30.568;2022-09-03T06:04:22;9.95;83.76
71128;SHT30;59249;59.736;30.568;2022-09-03T06:06:51;10.03;83.46
71128;SHT30;59249;59.736;30.568;2022-09-03T06:09:21;10.15;83.44
71128;SHT30;59249;59.736;30.568;2022-09-03T06:11:52;10.26;83.06
71128;SHT30;59249;59.736;30.568;2022-09-03T06:14:23;10.35;82.88
71128;SHT30;59249;59.736;30.568;2022-09-03T06:16:52;10.46;82.64
71128;SHT30;59249;59.736;30.568;2022-09-03T06:19:22;10.65;82.48
71128;SHT30;59249;59.736;30.568;2022-09-03T06:21:51;10.64;81.02
71128;SHT30;59249;59.736;30.568;2022-09-03T06:24:21;10.62;80.80
71128;SHT30;59249;59.736;30.568;2022-09-03T06:26:56;10.76;81.05
71128;SHT30;59249;59.736;30.568;2022-09-03T06:29:25;10.76;81.02
71128;SHT30;59249;59.736;30.568;2022-09-03T06:31:54;10.88;79.95
71128;SHT30;59249;59.736;30.568;2022-09-03T06:34:23;11.08;79.59
71128;SHT30;59249;59.736;30.568;2022-09-03T06:36:53;10.91;78.72
71128;SHT30;59249;59.736;30.568;2022-09-03T06:39:22;10.97;78.78
71128;SHT30;59249;59.736;30.568;2022-09-03T06:41:52;10.83;79.26
71128;SHT30;59249;59.736;30.568;2022-09-03T06:44:32;10.98;78.68
71128;SHT30;59249;59.736;30.568;2022-09-03T06:47:00;11.08;78.37
71128;SHT30;59249;59.736;30.568;2022-09-03T06:49:29;10.87;78.45
71128;SHT30;59249;59.736;30.568;2022-09-03T06:51:58;10.94;77.82
71128;SHT30;59249;59.736;30.568;2022-09-03T06:54:27;11.10;77.61
71128;SHT30;59249;59.736;30.568;2022-09-03T06:56:56;11.38;77.80
71128;SHT30;59249;59.736;30.568;2022-09-03T06:59:25;11.38;77.83
71128;SHT30;59249;59.736;30.568;2022-09-03T07:01:56;11.46;77.34
71128;SHT30;59249;59.736;30.568;2022-09-03T07:04:27;11.66;77.19
71128;SHT30;59249;59.736;30.568;2022-09-03T07:06:55;11.73;76.92
71128;SHT30;59249;59.736;30.568;2022-09-03T07:09:24;11.97;77.09
71128;SHT30;59249;59.736;30.568;2022-09-03T07:11:54;11.99;76.17
71128;SHT30;59249;59.736;30.568;2022-09-03T07:14:22;11.93;75.83
71128;SHT30;59249;59.736;30.568;2022-09-03T07:16:53;11.91;75.71
71128;SHT30;59249;59.736;30.568;2022-09-03T07:19:24;12.03;75.21
71128;SHT30;59249;59.736;30.568;2022-09-03T07:21:53;12.24;74.60
71128;SHT30;59249;59.736;30.568;2022-09-03T07:24:21;12.34;73.01
71128;SHT30;59249;59.736;30.568;2022-09-03T07:26:50;12.40;71.83
71128;SHT30;59249;59.736;30.568;2022-09-03T07:29:19;12.55;71.73
71128;SHT30;59249;59.736;30.568;2022-09-03T07:31:49;12.35;69.89
71128;SHT30;59249;59.736;30.568;2022-09-03T07:34:20;12.56;70.42
71128;SHT30;59249;59.736;30.568;2022-09-03T07:36:54;12.66;71.04
71128;SHT30;59249;59.736;30.568;2022-09-03T07:39:23;12.65;68.85
71128;SHT30;59249;59.736;30.568;2022-09-03T07:41:52;12.61;68.81
71128;SHT30;59249;59.736;30.568;2022-09-03T07:44:21;12.71;69.18
71128;SHT30;59249;59.736;30.568;2022-09-03T07:46:50;12.58;68.55
71128;SHT30;59249;59.736;30.568;2022-09-03T07:49:20;12.92;68.65
71128;SHT30;59249;59.736;30.568;2022-09-03T07:51:49;13.11;68.97
71128;SHT30;59249;59.736;30.568;2022-09-03T07:54:22;12.95;67.88
71128;SHT30;59249;59.736;30.568;2022-09-03T07:56:53;13.00;67.32
71128;SHT30;59249;59.736;30.568;2022-09-03T07:59:23;13.02;68.08
71128;SHT30;59249;59.736;30.568;2022-09-03T08:01:52;12.91;68.14
71128;SHT30;59249;59.736;30.568;2022-09-03T08:04:21;12.71;68.68
71128;SHT30;59249;59.736;30.568;2022-09-03T08:06:50;12.65;68.72
71128;SHT30;59249;59.736;30.568;2022-09-03T08:09:23;12.61;69.21
71128;SHT30;59249;59.736;30.568;2022-09-03T08:11:52;12.45;68.81
71128;SHT30;59249;59.736;30.568;2022-09-03T08:14:21;12.25;70.42
71128;SHT30;59249;59.736;30.568;2022-09-03T08:16:50;12.44;71.13
71128;SHT30;59249;59.736;30.568;2022-09-03T08:19:19;12.30;71.32
71128;SHT30;59249;59.736;30.568;2022-09-03T08:21:48;12.10;71.38
71128;SHT30;59249;59.736;30.568;2022-09-03T08:24:17;12.05;72.33
71128;SHT30;59249;59.736;30.568;2022-09-03T08:26:52;12.07;72.88
71128;SHT30;59249;59.736;30.568;2022-09-03T08:29:21;12.16;73.09
71128;SHT30;59249;59.736;30.568;2022-09-03T08:31:50;12.25;73.33
71128;SHT30;59249;59.736;30.568;2022-09-03T08:34:19;12.23;72.86
71128;SHT30;59249;59.736;30.568;2022-09-03T08:36:47;12.32;72.48
71128;SHT30;59249;59.736;30.568;2022-09-03T08:39:17;12.45;71.80
71128;SHT30;59249;59.736;30.568;2022-09-03T08:42:26;12.40;71.85
71128;SHT30;59249;59.736;30.568;2022-09-03T08:44:59;12.50;71.47
71128;SHT30;59249;59.736;30.568;2022-09-03T08:47:42;12.55;71.71
71128;SHT30;59249;59.736;30.568;2022-09-03T08:50:23;12.53;71.35
71128;SHT30;59249;59.736;30.568;2022-09-03T08:53:01;12.61;71.35
71128;SHT30;59249;59.736;30.568;2022-09-03T08:55:42;12.66;71.20
71128;SHT30;59249;59.736;30.568;2022-09-03T08:58:20;12.67;71.09
71128;SHT30;59249;59.736;30.568;2022-09-03T09:00:57;12.69;71.26
71128;SHT30;59249;59.736;30.568;2022-09-03T09:03:50;12.65;71.59
71128;SHT30;59249;59.736;30.568;2022-09-03T09:06:33;12.76;72.02
71128;SHT30;59249;59.736;30.568;2022-09-03T09:09:20;13.03;71.47
71128;SHT30;59249;59.736;30.568;2022-09-03T09:12:03;13.20;70.74
71128;SHT30;59249;59.736;30.568;2022-09-03T09:14:45;13.34;70.66
71128;SHT30;59249;59.736;30.568;2022-09-03T09:17:35;13.43;70.74
71128;SHT30;59249;59.736;30.568;2022-09-03T09:20:25;13.54;66.84
71128;SHT30;59249;59.736;30.568;2022-09-03T09:23:02;13.55;65.66
71128;SHT30;59249;59.736;30.568;2022-09-03T09:25:40;13.42;65.05
71128;SHT30;59249;59.736;30.568;2022-09-03T09:28:17;13.53;65.64
71128;SHT30;59249;59.736;30.568;2022-09-03T09:30:50;13.51;65.79
71128;SHT30;59249;59.736;30.568;2022-09-03T09:33:22;13.44;66.10
71128;SHT30;59249;59.736;30.568;2022-09-03T09:35:51;13.39;66.68
71128;SHT30;59249;59.736;30.568;2022-09-03T09:38:28;13.09;67.55
71128;SHT30;59249;59.736;30.568;2022-09-03T09:41:08;12.97;69.04
71128;SHT30;59249;59.736;30.568;2022-09-03T09:43:38;12.71;71.94
71128;SHT30;59249;59.736;30.568;2022-09-03T09:46:13;12.76;72.65
71128;SHT30;59249;59.736;30.568;2022-09-03T09:48:49;12.64;73.41
71128;SHT30;59249;59.736;30.568;2022-09-03T09:51:21;12.55;74.12
71128;SHT30;59249;59.736;30.568;2022-09-03T09:54:02;12.63;74.12
71128;SHT30;59249;59.736;30.568;2022-09-03T09:56:31;12.73;73.92
71128;SHT30;59249;59.736;30.568;2022-09-03T09:59:05;12.85;73.97
71128;SHT30;59249;59.736;30.568;2022-09-03T10:01:38;12.88;73.78
71128;SHT30;59249;59.736;30.568;2022-09-03T10:04:10;12.82;73.14
71128;SHT30;59249;59.736;30.568;2022-09-03T10:06:40;12.75;71.55
71128;SHT30;59249;59.736;30.568;2022-09-03T10:09:26;12.88;70.72
71128;SHT30;59249;59.736;30.568;2022-09-03T10:12:13;12.95;70.75
71128;SHT30;59249;59.736;30.568;2022-09-03T10:14:54;12.97;70.94
71128;SHT30;59249;59.736;30.568;2022-09-03T10:17:38;13.12;71.12
71128;SHT30;59249;59.736;30.568;2022-09-03T10:20:13;13.21;70.79
71128;SHT30;59249;59.736;30.568;2022-09-03T10:23:12;13.24;70.24
71128;SHT30;59249;59.736;30.568;2022-09-03T10:26:01;13.10;70.17
71128;SHT30;59249;59.736;30.568;2022-09-03T10:28:36;13.23;70.42
71128;SHT30;59249;59.736;30.568;2022-09-03T10:31:40;13.37;70.12
71128;SHT30;59249;59.736;30.568;2022-09-03T10:34:21;13.40;69.28
71128;SHT30;59249;59.736;30.568;2022-09-03T10:37:10;13.50;68.63
71128;SHT30;59249;59.736;30.568;2022-09-03T10:40:00;13.49;68.87
71128;SHT30;59249;59.736;30.568;2022-09-03T10:42:41;13.48;68.51
71128;SHT30;59249;59.736;30.568;2022-09-03T10:45:18;13.47;68.02
71128;SHT30;59249;59.736;30.568;2022-09-03T10:48:21;13.41;67.83
71128;SHT30;59249;59.736;30.568;2022-09-03T10:51:00;13.33;68.03
71128;SHT30;59249;59.736;30.568;2022-09-03T10:53:57;13.34;68.47
71128;SHT30;59249;59.736;30.568;2022-09-03T10:56:37;13.20;68.38
71128;SHT30;59249;59.736;30.568;2022-09-03T10:59:33;13.25;69.07
71128;SHT30;59249;59.736;30.568;2022-09-03T11:02:26;13.24;69.49
71128;SHT30;59249;59.736;30.568;2022-09-03T11:05:03;13.25;69.72
71128;SHT30;59249;59.736;30.568;2022-09-03T11:07:42;13.26;69.52
71128;SHT30;59249;59.736;30.568;2022-09-03T11:10:18;13.23;69.01
71128;SHT30;59249;59.736;30.568;2022-09-03T11:13:05;13.10;68.82
71128;SHT30;59249;59.736;30.568;2022-09-03T11:15:41;13.11;69.41
71128;SHT30;59249;59.736;30.568;2022-09-03T11:18:21;13.06;69.78
71128;SHT30;59249;59.736;30.568;2022-09-03T11:20:56;13.02;70.24
71128;SHT30;59249;59.736;30.568;2022-09-03T11:23:41;12.98;70.47
71128;SHT30;59249;59.736;30.568;2022-09-03T11:26:15;12.94;70.97
71128;SHT30;59249;59.736;30.568;2022-09-03T11:28:55;12.73;70.43
71128;SHT30;59249;59.736;30.568;2022-09-03T11:31:40;12.52;71.19
71128;SHT30;59249;59.736;30.568;2022-09-03T11:34:30;12.03;74.48
71128;SHT30;59249;59.736;30.568;2022-09-03T11:37:17;12.13;74.56
71128;SHT30;59249;59.736;30.568;2022-09-03T11:40:02;12.29;74.17
71128;SHT30;59249;59.736;30.568;2022-09-03T11:42:36;12.42;74.57
71128;SHT30;59249;59.736;30.568;2022-09-03T11:45:34;12.52;72.43
71128;SHT30;59249;59.736;30.568;2022-09-03T11:48:33;12.67;71.25
71128;SHT30;59249;59.736;30.568;2022-09-03T11:51:14;12.79;70.64
71128;SHT30;59249;59.736;30.568;2022-09-03T11:53:54;12.73;68.91
71128;SHT30;59249;59.736;30.568;2022-09-03T11:56:25;12.84;69.79
71128;SHT30;59249;59.736;30.568;2022-09-03T11:59:17;12.92;70.30
71128;SHT30;59249;59.736;30.568;2022-09-03T12:01:51;12.93;69.12
71128;SHT30;59249;59.736;30.568;2022-09-03T12:04:28;12.83;68.70
71128;SHT30;59249;59.736;30.568;2022-09-03T12:07:39;12.80;69.48
71128;SHT30;59249;59.736;30.568;2022-09-03T12:10:29;12.89;69.47
71128;SHT30;59249;59.736;30.568;2022-09-03T12:13:15;13.00;69.81
71128;SHT30;59249;59.736;30.568;2022-09-03T12:16:14;13.07;69.51
71128;SHT30;59249;59.736;30.568;2022-09-03T12:18:47;13.13;70.16
71128;SHT30;59249;59.736;30.568;2022-09-03T12:21:20;13.28;70.01
71128;SHT30;59249;59.736;30.568;2022-09-03T12:23:52;13.32;69.16
71128;SHT30;59249;59.736;30.568;2022-09-03T12:26:26;13.33;68.63
71128;SHT30;59249;59.736;30.568;2022-09-03T12:28:58;13.29;69.66
71128;SHT30;59249;59.736;30.568;2022-09-03T12:31:30;13.39;69.65
71128;SHT30;59249;59.736;30.568;2022-09-03T12:34:02;13.51;67.96
71128;SHT30;59249;59.736;30.568;2022-09-03T12:36:38;13.58;67.46
71128;SHT30;59249;59.736;30.568;2022-09-03T12:39:09;13.36;66.74
71128;SHT30;59249;59.736;30.568;2022-09-03T12:42:00;13.06;66.59
71128;SHT30;59249;59.736;30.568;2022-09-03T12:44:38;13.06;67.86
71128;SHT30;59249;59.736;30.568;2022-09-03T12:47:11;12.91;69.88
71128;SHT30;59249;59.736;30.568;2022-09-03T12:50:07;12.72;71.10
71128;SHT30;59249;59.736;30.568;2022-09-03T12:52:42;12.44;75.63
71128;SHT30;59249;59.736;30.568;2022-09-03T12:55:25;12.36;76.60
71128;SHT30;59249;59.736;30.568;2022-09-03T12:58:04;12.14;75.21
71128;SHT30;59249;59.736;30.568;2022-09-03T13:00:46;12.05;76.07
71128;SHT30;59249;59.736;30.568;2022-09-03T13:03:27;11.92;76.44
71128;SHT30;59249;59.736;30.568;2022-09-03T13:06:00;11.85;77.40
71128;SHT30;59249;59.736;30.568;2022-09-03T13:08:34;11.73;77.06
71128;SHT30;59249;59.736;30.568;2022-09-03T13:11:05;11.71;76.89
71128;SHT30;59249;59.736;30.568;2022-09-03T13:13:36;11.64;77.14
71128;SHT30;59249;59.736;30.568;2022-09-03T13:19:37;11.82;78.03
71128;SHT30;59249;59.736;30.568;2022-09-03T13:22:20;12.01;77.43
71128;SHT30;59249;59.736;30.568;2022-09-03T13:25:12;12.17;77.53
71128;SHT30;59249;59.736;30.568;2022-09-03T13:27:53;12.13;77.30
71128;SHT30;59249;59.736;30.568;2022-09-03T13:30:32;12.08;77.49
71128;SHT30;59249;59.736;30.568;2022-09-03T13:33:16;12.02;77.48
71128;SHT30;59249;59.736;30.568;2022-09-03T13:35:52;12.01;76.98
71128;SHT30;59249;59.736;30.568;2022-09-03T13:38:30;12.08;77.71
71128;SHT30;59249;59.736;30.568;2022-09-03T13:41:12;12.23;76.63
71128;SHT30;59249;59.736;30.568;2022-09-03T13:43:56;12.37;75.47
71128;SHT30;59249;59.736;30.568;2022-09-03T13:46:32;12.39;74.88
71128;SHT30;59249;59.736;30.568;2022-09-03T13:49:16;12.47;73.29
71128;SHT30;59249;59.736;30.568;2022-09-03T13:52:14;12.50;71.52
71128;SHT30;59249;59.736;30.568;2022-09-03T13:54:55;12.45;70.55
71128;SHT30;59249;59.736;30.568;2022-09-03T13:57:33;12.53;70.50
71128;SHT30;59249;59.736;30.568;2022-09-03T14:00:06;12.53;70.01
71128;SHT30;59249;59.736;30.568;2022-09-03T14:02:50;12.58;69.61
71128;SHT30;59249;59.736;30.568;2022-09-03T14:05:39;12.55;67.84
71128;SHT30;59249;59.736;30.568;2022-09-03T14:08:21;12.62;67.55
71128;SHT30;59249;59.736;30.568;2022-09-03T14:11:04;12.62;66.53
71128;SHT30;59249;59.736;30.568;2022-09-03T14:13:57;12.71;67.32
71128;SHT30;59249;59.736;30.568;2022-09-03T14:16:37;12.67;67.80
71128;SHT30;59249;59.736;30.568;2022-09-03T14:19:15;12.71;67.63
71128;SHT30;59249;59.736;30.568;2022-09-03T14:21:52;12.64;67.17
71128;SHT30;59249;59.736;30.568;2022-09-03T14:24:26;12.58;67.84
71128;SHT30;59249;59.736;30.568;2022-09-03T14:27:00;12.64;68.78
71128;SHT30;59249;59.736;30.568;2022-09-03T14:29:33;12.67;68.76
71128;SHT30;59249;59.736;30.568;2022-09-03T14:32:19;12.73;69.27
71128;SHT30;59249;59.736;30.568;2022-09-03T14:38:28;12.89;67.54
71128;SHT30;59249;59.736;30.568;2022-09-03T14:41:05;12.95;68.32
71128;SHT30;59249;59.736;30.568;2022-09-03T14:47:13;13.10;69.79
71128;SHT30;59249;59.736;30.568;2022-09-03T14:49:59;13.19;69.31
71128;SHT30;59249;59.736;30.568;2022-09-03T14:52:56;13.37;68.16
71128;SHT30;59249;59.736;30.568;2022-09-03T14:55:47;13.53;67.19
71128;SHT30;59249;59.736;30.568;2022-09-03T14:58:34;13.69;67.13
71128;SHT30;59249;59.736;30.568;2022-09-03T15:01:11;13.70;66.46
71128;SHT30;59249;59.736;30.568;2022-09-03T15:07:17;14.16;66.22
71128;SHT30;59249;59.736;30.568;2022-09-03T15:10:01;14.26;65.82
71128;SHT30;59249;59.736;30.568;2022-09-03T15:12:39;14.24;65.50
71128;SHT30;59249;59.736;30.568;2022-09-03T15:15:17;14.43;65.54
71128;SHT30;59249;59.736;30.568;2022-09-03T15:18:01;14.55;65.74
71128;SHT30;59249;59.736;30.568;2022-09-03T15:20:48;14.64;65.02
71128;SHT30;59249;59.736;30.568;2022-09-03T15:23:41;14.60;65.11
71128;SHT30;59249;59.736;30.568;2022-09-03T15:29:35;14.67;64.91
71128;SHT30;59249;59.736;30.568;2022-09-03T15:32:20;14.78;64.64
71128;SHT30;59249;59.736;30.568;2022-09-03T15:35:07;14.86;63.84
71128;SHT30;59249;59.736;30.568;2022-09-03T15:37:44;14.99;63.22
71128;SHT30;59249;59.736;30.568;2022-09-03T15:40:28;14.90;60.73
71128;SHT30;59249;59.736;30.568;2022-09-03T15:43:07;14.96;61.05
71128;SHT30;59249;59.736;30.568;2022-09-03T15:45:50;14.96;60.71
71128;SHT30;59249;59.736;30.568;2022-09-03T15:48:35;14.90;60.58
71128;SHT30;59249;59.736;30.568;2022-09-03T15:51:16;14.92;61.01
71128;SHT30;59249;59.736;30.568;2022-09-03T15:53:53;14.93;60.26
71128;SHT30;59249;59.736;30.568;2022-09-03T15:56:30;14.95;59.79
71128;SHT30;59249;59.736;30.568;2022-09-03T15:59:11;14.98;59.58
71128;SHT30;59249;59.736;30.568;2022-09-03T16:01:50;15.02;59.60
71128;SHT30;59249;59.736;30.568;2022-09-03T16:04:37;15.11;59.46
71128;SHT30;59249;59.736;30.568;2022-09-03T16:07:20;15.11;59.27
71128;SHT30;59249;59.736;30.568;2022-09-03T16:10:08;15.09;59.77
71128;SHT30;59249;59.736;30.568;2022-09-03T16:13:02;14.91;59.82
71128;SHT30;59249;59.736;30.568;2022-09-03T16:15:39;14.76;59.99
71128;SHT30;59249;59.736;30.568;2022-09-03T16:18:25;14.60;60.48
71128;SHT30;59249;59.736;30.568;2022-09-03T16:21:03;14.41;61.41
71128;SHT30;59249;59.736;30.568;2022-09-03T16:23:45;14.16;62.40
71128;SHT30;59249;59.736;30.568;2022-09-03T16:26:21;14.03;64.13
71128;SHT30;59249;59.736;30.568;2022-09-03T16:28:54;13.99;65.20
71128;SHT30;59249;59.736;30.568;2022-09-03T16:31:54;13.65;67.15
71128;SHT30;59249;59.736;30.568;2022-09-03T16:34:42;13.24;68.41
71128;SHT30;59249;59.736;30.568;2022-09-03T16:37:25;12.89;69.61
71128;SHT30;59249;59.736;30.568;2022-09-03T16:40:11;12.55;70.79